Time;durP1;ratioP1;P1;durP2;ratioP2;P2;SDS_P1;SDS_P2;PMS_P1;PMS_P2;Temp;Humidity;BMP_temperature;BMP_pressure;BME280_temperature;BME280_humidity;BME280_pressure;Samples;Min_cycle;Max_cycle;Signal;HPM_P1;HPM_P2
2021/04/08 00:00:20;;;;;;;;;15.00;11.00;;;;;0.12;78.92;99803.38;3550610;40;9714;-59
2021/04/08 00:02:47;;;;;;;;;19.25;17.25;;;;;0.09;79.40;99803.44;3555358;40;9259;-60
2021/04/08 00:05:16;;;;;;;;;12.75;12.75;;;;;0.14;79.21;99805.09;3557599;40;9444;-59
2021/04/08 00:07:43;;;;;;;;;16.00;13.50;;;;;0.28;77.95;99801.34;3553233;40;9265;-59
2021/04/08 00:10:12;;;;;;;;;13.00;12.25;;;;;0.18;79.03;99812.03;3548369;40;9250;-59
2021/04/08 00:12:40;;;;;;;;;19.00;10.00;;;;;0.14;78.72;99813.00;3557057;40;9294;-59
2021/04/08 00:15:12;;;;;;;;;14.00;12.75;;;;;0.63;77.11;99809.50;3557798;40;9271;-59
2021/04/08 00:17:39;;;;;;;;;14.75;10.75;;;;;0.11;78.96;99818.34;3557725;40;9268;-59
2021/04/08 00:20:24;;;;;;;;;19.75;16.00;;;;;-0.12;79.41;99817.84;3558079;40;9284;-59
2021/04/08 00:22:51;;;;;;;;;15.75;15.00;;;;;0.11;78.46;99818.34;3555393;40;9275;-59
2021/04/08 00:25:18;;;;;;;;;25.50;15.00;;;;;0.12;78.68;99820.06;3558092;40;9271;-63
2021/04/08 00:27:46;;;;;;;;;19.50;15.50;;;;;0.19;78.70;99818.22;3557168;40;9256;-60
2021/04/08 00:30:14;;;;;;;;;21.25;15.50;;;;;0.14;78.24;99815.66;3557479;40;9309;-60
2021/04/08 00:32:41;;;;;;;;;21.50;15.25;;;;;-0.19;79.40;99824.13;3554734;40;9238;-59
2021/04/08 00:35:09;;;;;;;;;26.00;18.75;;;;;0.44;78.09;99826.56;3556885;40;9259;-59
2021/04/08 00:37:36;;;;;;;;;21.75;15.00;;;;;0.06;78.65;99825.47;3556345;40;9255;-60
2021/04/08 00:40:11;;;;;;;;;18.25;12.00;;;;;0.13;78.57;99821.84;3557925;40;9298;-59
2021/04/08 00:42:40;;;;;;;;;25.50;16.00;;;;;-0.20;78.24;99822.38;3540975;40;9266;-60
2021/04/08 00:45:08;;;;;;;;;18.50;15.00;;;;;-0.16;79.17;99826.69;3548483;40;9459;-60
2021/04/08 00:47:35;;;;;;;;;18.75;15.50;;;;;-0.29;79.11;99829.56;3549178;40;9251;-59
2021/04/08 00:50:04;;;;;;;;;19.75;14.75;;;;;0.14;78.02;99839.41;3557693;40;9471;-60
2021/04/08 00:52:32;;;;;;;;;19.25;14.25;;;;;0.18;77.31;99840.22;3556981;40;9243;-60
2021/04/08 00:54:59;;;;;;;;;21.50;17.00;;;;;-0.11;78.78;99835.41;3555614;40;9254;-59
2021/04/08 00:57:26;;;;;;;;;16.25;10.50;;;;;-0.16;78.72;99839.91;3557723;40;9251;-59
2021/04/08 00:59:53;;;;;;;;;16.50;12.00;;;;;0.11;77.88;99842.09;3556038;40;9255;-59
2021/04/08 01:02:21;;;;;;;;;18.25;15.00;;;;;0.28;76.98;99841.81;3556821;40;9814;-59
2021/04/08 01:04:48;;;;;;;;;15.75;10.50;;;;;0.03;76.67;99841.38;3555652;40;9492;-59
2021/04/08 01:07:15;;;;;;;;;16.50;16.50;;;;;-0.24;78.52;99847.94;3549332;40;9270;-59
2021/04/08 01:09:42;;;;;;;;;27.75;25.75;;;;;-0.47;79.26;99843.00;3554350;40;9267;-59
2021/04/08 01:12:09;;;;;;;;;57.75;34.75;;;;;-0.37;78.51;99851.63;3557270;40;9278;-59
2021/04/08 01:14:36;;;;;;;;;25.25;18.50;;;;;-0.13;78.04;99850.41;3557596;40;9255;-60
2021/04/08 01:17:10;;;;;;;;;28.50;21.50;;;;;-0.13;77.54;99853.03;3554576;40;9247;-59
2021/04/08 01:20:21;;;;;;;;;19.00;14.00;;;;;-0.06;78.74;99854.69;3556571;40;9275;-59
2021/04/08 01:22:56;;;;;;;;;16.25;10.50;;;;;0.17;77.39;99856.97;3545137;40;9248;-59
2021/04/08 01:26:01;;;;;;;;;19.00;14.00;;;;;0.11;76.56;99860.59;3555050;40;9288;-60
2021/04/08 01:28:46;;;;;;;;;22.50;12.50;;;;;0.06;77.35;99867.72;3554640;40;9770;-60
2021/04/08 01:31:17;;;;;;;;;15.25;13.50;;;;;0.26;76.16;99863.84;3557615;40;9287;-60
2021/04/08 01:33:50;;;;;;;;;21.00;15.00;;;;;0.19;76.61;99863.09;3557511;40;9252;-59
2021/04/08 01:36:31;;;;;;;;;20.50;15.00;;;;;-0.16;77.22;99861.88;3557740;40;9330;-60
2021/04/08 01:39:09;;;;;;;;;25.50;17.50;;;;;-0.17;77.34;99867.19;3554152;40;9284;-61
2021/04/08 01:41:44;;;;;;;;;21.50;17.00;;;;;-0.25;78.58;99856.75;3547744;40;9249;-61
2021/04/08 01:44:18;;;;;;;;;24.00;16.00;;;;;-0.13;78.15;99861.84;3556334;40;9289;-61
2021/04/08 01:46:59;;;;;;;;;25.00;16.00;;;;;0.01;76.89;99863.41;3556163;40;9271;-61
2021/04/08 01:49:31;;;;;;;;;30.50;13.00;;;;;-0.08;77.77;99861.75;3556432;40;9243;-60
2021/04/08 01:52:00;;;;;;;;;19.00;13.50;;;;;-0.41;78.23;99861.38;3555721;40;9437;-60
2021/04/08 01:54:30;;;;;;;;;16.25;12.25;;;;;-0.20;78.11;99865.47;3556859;40;9263;-60
2021/04/08 01:57:08;;;;;;;;;15.50;12.50;;;;;-0.31;77.83;99868.25;3555946;40;9263;-61
2021/04/08 01:59:37;;;;;;;;;16.25;9.75;;;;;-0.43;78.34;99878.13;3555476;40;9243;-61
2021/04/08 02:02:05;;;;;;;;;22.25;15.00;;;;;-0.39;79.22;99866.63;3555503;40;9448;-60
2021/04/08 02:04:33;;;;;;;;;19.50;12.75;;;;;-0.58;79.31;99872.16;3556545;40;9270;-61
2021/04/08 02:07:02;;;;;;;;;21.75;13.25;;;;;-0.62;79.45;99875.72;3556185;40;9251;-61
2021/04/08 02:09:31;;;;;;;;;22.00;15.00;;;;;-0.30;78.89;99875.28;3556622;40;9251;-60
2021/04/08 02:12:00;;;;;;;;;15.75;12.25;;;;;-0.41;78.55;99877.19;3555199;40;9263;-60
2021/04/08 02:14:29;;;;;;;;;20.75;12.00;;;;;-0.36;78.68;99885.91;3556715;40;9240;-60
2021/04/08 02:16:58;;;;;;;;;20.00;13.00;;;;;-0.41;78.88;99886.88;3555601;40;9292;-61
2021/04/08 02:19:26;;;;;;;;;21.00;13.50;;;;;-0.52;79.13;99890.53;3556580;40;9453;-61
2021/04/08 02:21:54;;;;;;;;;17.50;13.00;;;;;-0.61;79.27;99889.78;3549152;40;9242;-60
2021/04/08 02:24:22;;;;;;;;;18.00;12.00;;;;;-0.53;78.29;99894.03;3553735;40;9259;-60
2021/04/08 02:26:50;;;;;;;;;57.50;41.00;;;;;-0.57;79.32;99892.34;3556200;40;9247;-60
2021/04/08 02:29:20;;;;;;;;;39.50;37.00;;;;;-0.81;79.82;99890.03;3555995;40;10002;-61
2021/04/08 02:31:49;;;;;;;;;69.25;54.00;;;;;-0.85;79.94;99902.38;3555771;40;9293;-60
2021/04/08 02:34:17;;;;;;;;;33.50;21.00;;;;;-0.82;79.91;99901.47;3551954;40;9446;-60
2021/04/08 02:36:44;;;;;;;;;54.00;48.50;;;;;-0.61;80.11;99906.47;3555119;40;9283;-61
2021/04/08 02:39:11;;;;;;;;;23.25;16.00;;;;;-0.65;79.37;99903.91;3552916;40;9259;-61
2021/04/08 02:41:46;;;;;;;;;20.50;14.00;;;;;-0.97;79.96;99902.53;3557945;40;9267;-61
2021/04/08 02:44:15;;;;;;;;;10.00;10.00;;;;;-0.87;79.54;99904.13;3554717;40;9243;-60
2021/04/08 02:46:42;;;;;;;;;21.00;12.50;;;;;-0.99;79.59;99910.44;3558279;40;9369;-60
2021/04/08 02:49:10;;;;;;;;;17.50;13.00;;;;;-0.90;79.71;99904.19;3565892;40;9299;-60
2021/04/08 02:51:48;;;;;;;;;17.00;11.25;;;;;-0.97;79.98;99902.53;3557214;40;9243;-60
2021/04/08 02:54:38;;;;;;;;;14.50;10.00;;;;;-0.88;79.78;99913.81;3557927;40;9259;-60
2021/04/08 02:57:10;;;;;;;;;19.00;13.00;;;;;-0.83;79.48;99916.41;3557448;40;9280;-60
2021/04/08 02:59:44;;;;;;;;;18.75;15.75;;;;;-1.05;79.77;99914.88;3553095;40;9238;-60
2021/04/08 03:02:14;;;;;;;;;15.50;12.75;;;;;-0.56;78.32;99919.59;3550453;40;9263;-60
2021/04/08 03:04:48;;;;;;;;;17.50;11.00;;;;;-0.93;79.64;99914.75;3557448;40;9271;-60
2021/04/08 03:07:31;;;;;;;;;16.00;12.50;;;;;-1.02;80.38;99914.88;3557647;40;9317;-60
2021/04/08 03:09:58;;;;;;;;;21.00;14.50;;;;;-1.14;80.40;99922.00;3557400;40;9754;-60
2021/04/08 03:12:28;;;;;;;;;17.25;13.00;;;;;-1.37;80.97;99911.72;3557224;40;9267;-60
2021/04/08 03:14:57;;;;;;;;;18.00;12.00;;;;;-0.93;80.04;99917.41;3558443;40;9263;-60
2021/04/08 03:17:31;;;;;;;;;23.25;12.50;;;;;-0.84;79.10;99929.59;3557415;40;9286;-60
2021/04/08 03:20:00;;;;;;;;;17.75;10.25;;;;;-1.12;80.36;99935.16;3558763;40;9274;-60
2021/04/08 03:22:28;;;;;;;;;18.00;13.00;;;;;-1.01;80.09;99935.06;3557358;40;9467;-61
2021/04/08 03:24:57;;;;;;;;;13.00;13.00;;;;;-1.03;79.53;99931.56;3557139;40;9453;-60
2021/04/08 03:27:27;;;;;;;;;15.25;13.00;;;;;-1.28;79.80;99931.81;3558377;40;9278;-60
2021/04/08 03:29:56;;;;;;;;;21.50;14.50;;;;;-1.29;80.62;99935.34;3557792;40;9282;-60
2021/04/08 03:32:24;;;;;;;;;15.25;12.50;;;;;-1.47;80.65;99924.97;3557433;40;9402;-61
2021/04/08 03:34:51;;;;;;;;;14.50;9.50;;;;;-1.44;81.30;99920.56;3558359;40;9286;-60
2021/04/08 03:37:20;;;;;;;;;12.50;10.50;;;;;-1.25;81.00;99939.69;3557216;40;9270;-60
2021/04/08 03:39:47;;;;;;;;;19.00;13.00;;;;;-1.26;80.48;99943.22;3557863;40;9255;-60
2021/04/08 03:42:15;;;;;;;;;17.50;13.00;;;;;-1.15;80.34;99946.59;3556883;40;9247;-61
2021/04/08 03:44:43;;;;;;;;;17.00;10.00;;;;;-1.04;79.53;99943.00;3557306;40;9310;-60
2021/04/08 03:47:11;;;;;;;;;15.00;12.25;;;;;-1.22;80.53;99949.31;3558279;40;9272;-60
2021/04/08 03:49:38;;;;;;;;;15.00;13.00;;;;;-1.18;79.82;99953.69;3556961;40;9251;-60
2021/04/08 03:52:07;;;;;;;;;20.75;15.25;;;;;-1.19;80.03;99954.56;3557811;40;9287;-61
2021/04/08 03:54:36;;;;;;;;;20.50;12.00;;;;;-1.29;80.16;99955.53;3557214;40;9285;-61
2021/04/08 03:57:11;;;;;;;;;34.25;30.25;;;;;-1.26;80.35;99955.50;3557031;40;9279;-61
2021/04/08 03:59:40;;;;;;;;;29.25;19.25;;;;;-1.49;80.83;99953.09;3555076;40;9362;-60
2021/04/08 04:02:08;;;;;;;;;40.00;25.00;;;;;-1.36;80.63;99958.22;3558294;40;9310;-60
2021/04/08 04:04:35;;;;;;;;;37.75;23.50;;;;;-1.39;80.90;99966.16;3556484;40;9266;-60
2021/04/08 04:07:02;;;;;;;;;31.25;23.25;;;;;-1.44;80.71;99960.06;3556697;40;9271;-60
2021/04/08 04:09:29;;;;;;;;;24.50;18.75;;;;;-1.36;80.56;99967.88;3558057;40;9263;-60
2021/04/08 04:11:58;;;;;;;;;29.25;18.75;;;;;-1.38;80.97;99965.25;3557703;40;9278;-60
2021/04/08 04:14:28;;;;;;;;;26.50;16.50;;;;;-1.33;80.60;99967.84;3558021;40;9269;-60
2021/04/08 04:16:56;;;;;;;;;25.00;16.00;;;;;-1.20;80.39;99972.13;3558161;40;9271;-60
2021/04/08 04:19:24;;;;;;;;;30.75;21.75;;;;;-1.40;80.56;99972.28;3557922;40;9322;-61
2021/04/08 04:21:53;;;;;;;;;21.00;17.50;;;;;-1.21;80.13;99972.13;3551181;40;9452;-61
2021/04/08 04:24:20;;;;;;;;;20.75;14.50;;;;;-1.19;80.25;99970.34;3558008;40;9275;-62
2021/04/08 04:26:47;;;;;;;;;18.75;16.00;;;;;-1.22;80.22;99973.03;3557867;40;9244;-60
2021/04/08 04:29:14;;;;;;;;;22.00;14.75;;;;;-1.01;79.21;99978.09;3557933;40;9294;-60
2021/04/08 04:31:41;;;;;;;;;35.50;16.00;;;;;-0.63;78.02;99974.19;3557864;40;9287;-60
2021/04/08 04:34:09;;;;;;;;;15.00;14.50;;;;;-1.05;79.08;99975.47;3557892;40;9464;-60
2021/04/08 04:36:35;;;;;;;;;22.00;14.50;;;;;-0.89;79.40;99977.09;3557608;40;9287;-61
2021/04/08 04:39:04;;;;;;;;;31.00;22.00;;;;;-0.93;78.77;99978.88;3557958;40;9263;-60
2021/04/08 04:41:31;;;;;;;;;25.50;20.00;;;;;-0.90;79.52;99978.84;3565026;40;9476;-60
2021/04/08 04:43:58;;;;;;;;;29.00;15.00;;;;;-0.58;78.61;99969.72;3557235;40;9252;-60
2021/04/08 04:46:25;;;;;;;;;21.25;15.00;;;;;-0.42;78.28;99978.34;3557760;40;9268;-60
2021/04/08 04:48:52;;;;;;;;;25.25;16.50;;;;;-0.33;77.58;99975.56;3557310;40;9282;-60
2021/04/08 04:51:19;;;;;;;;;21.00;15.00;;;;;-0.28;77.97;99979.03;3557575;40;9476;-61
2021/04/08 04:53:46;;;;;;;;;21.50;17.50;;;;;-0.15;77.44;99981.50;3556546;40;9793;-60
2021/04/08 04:56:13;;;;;;;;;24.50;18.75;;;;;0.12;76.50;99989.03;3557586;40;9275;-60
2021/04/08 04:58:40;;;;;;;;;10.50;10.50;;;;;0.63;74.69;99981.22;3556658;40;9271;-60
2021/04/08 05:01:07;;;;;;;;;18.75;13.00;;;;;1.09;73.28;99982.19;3548010;40;9282;-60
2021/04/08 05:03:38;;;;;;;;;19.00;14.50;;;;;0.67;74.50;99976.75;3555041;40;9277;-60
2021/04/08 05:06:06;;;;;;;;;22.00;18.75;;;;;0.27;76.48;99984.44;3547933;40;9294;-60
2021/04/08 05:08:33;;;;;;;;;22.00;18.00;;;;;0.68;74.98;99988.19;3547913;40;9365;-60
2021/04/08 05:10:59;;;;;;;;;25.75;15.50;;;;;0.64;75.07;99993.53;3549099;40;9301;-61
2021/04/08 05:13:26;;;;;;;;;22.50;18.50;;;;;0.75;75.01;99995.13;3557602;40;9361;-61
2021/04/08 05:15:53;;;;;;;;;21.00;14.75;;;;;1.13;73.11;99997.09;3556741;40;9294;-61
2021/04/08 05:18:20;;;;;;;;;13.50;9.75;;;;;1.53;70.75;99991.94;3557259;40;9318;-60
2021/04/08 05:20:47;;;;;;;;;15.75;13.00;;;;;1.86;70.38;100002.72;3557756;40;9453;-61
2021/04/08 05:23:16;;;;;;;;;10.00;10.00;;;;;1.81;68.99;99996.66;3557260;40;9286;-61
2021/04/08 05:25:43;;;;;;;;;10.00;9.50;;;;;2.04;68.19;99997.94;3557630;40;9259;-60
2021/04/08 05:28:10;;;;;;;;;17.25;10.75;;;;;1.83;69.76;100000.13;3557437;40;9294;-61
2021/04/08 05:30:37;;;;;;;;;12.25;11.25;;;;;1.80;69.39;99994.91;3557465;40;9295;-60
2021/04/08 05:33:04;;;;;;;;;14.75;10.00;;;;;1.57;72.01;100005.09;3557305;40;9263;-60
2021/04/08 05:35:31;;;;;;;;;15.00;9.50;;;;;1.52;71.59;100010.47;3557478;40;9243;-60
2021/04/08 05:37:58;;;;;;;;;18.75;13.75;;;;;1.61;72.62;100009.44;3557660;40;9767;-60
2021/04/08 05:40:25;;;;;;;;;19.00;13.75;;;;;1.54;71.78;100004.25;3557446;40;9287;-60
2021/04/08 05:42:52;;;;;;;;;17.00;13.25;;;;;1.56;73.37;100008.66;3557216;40;9787;-60
2021/04/08 05:45:21;;;;;;;;;9.25;9.25;;;;;1.47;73.33;100018.50;3557341;40;9268;-61
2021/04/08 05:47:48;;;;;;;;;18.25;15.00;;;;;1.73;73.57;100014.47;3556998;40;9374;-60
2021/04/08 05:50:16;;;;;;;;;14.75;12.25;;;;;1.89;72.37;100010.59;3557218;40;9362;-61
2021/04/08 05:52:43;;;;;;;;;13.00;11.75;;;;;2.06;72.31;100017.34;3557673;40;9283;-60
2021/04/08 05:55:11;;;;;;;;;16.00;11.50;;;;;2.27;71.62;100016.00;3557295;40;9278;-60
2021/04/08 05:57:38;;;;;;;;;13.75;13.50;;;;;2.58;70.99;100018.78;3557723;40;9342;-61
2021/04/08 06:00:07;;;;;;;;;12.00;6.00;;;;;3.02;70.83;100030.09;3557144;40;9255;-61
2021/04/08 06:02:35;;;;;;;;;12.75;12.50;;;;;3.23;70.61;100032.19;3557237;40;9475;-60
2021/04/08 06:05:06;;;;;;;;;18.50;13.25;;;;;2.18;75.41;100033.81;3557505;40;9528;-61
2021/04/08 06:07:33;;;;;;;;;16.25;10.75;;;;;2.14;74.79;100031.28;3556821;40;9766;-61
2021/04/08 06:10:00;;;;;;;;;17.75;14.25;;;;;2.13;75.97;100033.06;3556980;40;9391;-61
2021/04/08 06:12:27;;;;;;;;;14.25;12.25;;;;;2.14;77.14;100040.09;3556972;40;9506;-61
2021/04/08 06:14:55;;;;;;;;;13.25;10.00;;;;;2.33;76.89;100040.56;3556869;40;9849;-60
2021/04/08 06:17:23;;;;;;;;;14.00;12.50;;;;;3.21;74.52;100038.44;3557029;40;9462;-61
2021/04/08 06:19:50;;;;;;;;;13.50;11.50;;;;;3.03;74.59;100045.13;3557462;40;9595;-61
2021/04/08 06:22:17;;;;;;;;;22.75;17.75;;;;;2.68;76.54;100044.16;3556768;40;9737;-60
2021/04/08 06:24:44;;;;;;;;;14.00;12.50;;;;;3.24;74.34;100039.25;3556992;40;9692;-60
2021/04/08 06:27:11;;;;;;;;;14.50;11.00;;;;;2.55;77.79;100043.56;3556507;40;9741;-61
2021/04/08 06:29:37;;;;;;;;;19.50;17.00;;;;;2.26;78.57;100041.59;3556784;40;9731;-62
2021/04/08 06:32:05;;;;;;;;;25.75;22.75;;;;;2.43;80.25;100054.47;3556838;40;9307;-60
2021/04/08 06:34:32;;;;;;;;;21.00;16.00;;;;;2.41;80.41;100050.97;3556998;40;9378;-61
2021/04/08 06:36:59;;;;;;;;;38.75;27.00;;;;;2.59;80.03;100047.91;3557025;40;9314;-60
2021/04/08 06:39:26;;;;;;;;;21.00;14.25;;;;;2.51;81.90;100051.66;3556719;40;9481;-60
2021/04/08 06:41:55;;;;;;;;;17.00;15.00;;;;;2.31;82.75;100054.72;3557336;40;9310;-60
2021/04/08 06:44:24;;;;;;;;;13.25;12.00;;;;;2.55;82.93;100058.59;3555867;40;9286;-60
2021/04/08 06:46:58;;;;;;;;;13.75;9.50;;;;;3.18;80.49;100059.75;3555860;40;9355;-61
2021/04/08 06:49:46;;;;;;;;;17.00;13.00;;;;;2.60;82.30;100065.53;3555444;40;9287;-60
2021/04/08 06:52:18;;;;;;;;;14.25;8.00;;;;;2.42;83.81;100061.56;3555804;40;9549;-60
2021/04/08 06:54:46;;;;;;;;;13.25;10.25;;;;;2.28;82.26;100060.09;3555989;40;9772;-60
2021/04/08 06:57:20;;;;;;;;;15.00;13.50;;;;;2.61;83.15;100069.09;3564156;40;9409;-61
2021/04/08 06:59:47;;;;;;;;;14.00;10.50;;;;;3.08;81.16;100072.38;3557314;40;9655;-61
2021/04/08 07:02:20;;;;;;;;;12.75;11.00;;;;;2.97;81.33;100062.03;3556333;40;9779;-61
2021/04/08 07:04:47;;;;;;;;;14.00;9.75;;;;;3.22;81.21;100072.03;3556646;40;9688;-61
2021/04/08 07:07:15;;;;;;;;;13.50;11.00;;;;;2.93;83.18;100070.13;3556903;40;9656;-60
2021/04/08 07:09:43;;;;;;;;;16.75;12.00;;;;;2.67;84.64;100071.59;3556786;40;9528;-60
2021/04/08 07:12:13;;;;;;;;;15.00;11.00;;;;;2.81;85.09;100077.44;3556918;40;9564;-60
2021/04/08 07:14:40;;;;;;;;;19.00;14.25;;;;;2.82;85.78;100079.19;3555979;40;9706;-61
2021/04/08 07:17:12;;;;;;;;;15.50;13.00;;;;;3.10;85.60;100081.16;3555777;40;10042;-60
2021/04/08 07:19:40;;;;;;;;;15.50;14.25;;;;;3.57;84.85;100089.69;3556459;40;9969;-60
2021/04/08 07:22:07;;;;;;;;;12.50;11.25;;;;;3.46;83.52;100086.47;3556624;40;10004;-61
2021/04/08 07:24:48;;;;;;;;;14.25;9.50;;;;;3.74;82.91;100094.56;3556310;40;9919;-60
2021/04/08 07:27:18;;;;;;;;;17.00;11.00;;;;;3.28;83.98;100090.44;3556190;40;10035;-60
2021/04/08 07:29:59;;;;;;;;;12.50;11.00;;;;;3.33;83.54;100095.66;3558182;40;9868;-61
2021/04/08 07:32:33;;;;;;;;;11.75;10.00;;;;;3.74;82.42;100090.13;3556712;40;9819;-61
2021/04/08 07:35:01;;;;;;;;;16.75;13.75;;;;;3.66;82.73;100089.47;3558143;40;9896;-60
2021/04/08 07:37:33;;;;;;;;;11.00;11.00;;;;;4.03;81.78;100093.75;3558120;40;9787;-60
2021/04/08 07:40:16;;;;;;;;;16.00;14.75;;;;;4.15;82.20;100096.06;3558324;40;10027;-60
2021/04/08 07:42:44;;;;;;;;;18.25;14.00;;;;;4.38;79.98;100097.19;3558256;40;10413;-60
2021/04/08 07:45:28;;;;;;;;;14.50;12.50;;;;;5.15;76.85;100102.78;3557414;40;10279;-60
2021/04/08 07:48:07;;;;;;;;;12.00;10.25;;;;;4.82;78.35;100093.16;3558416;40;10095;-61
2021/04/08 07:50:40;;;;;;;;;14.67;11.33;;;;;5.21;75.58;100098.13;3565294;40;10231;-62
2021/04/08 07:53:07;;;;;;;;;15.33;12.67;;;;;6.11;74.05;100093.28;3557903;40;10329;-61
2021/04/08 07:55:35;;;;;;;;;12.00;11.33;;;;;5.62;72.27;100097.66;3557496;40;10203;-61
2021/04/08 07:58:13;;;;;;;;;15.33;10.67;;;;;5.83;71.32;100091.56;3557917;40;10084;-62
2021/04/08 08:00:49;;;;;;;;;27.33;20.00;;;;;5.37;72.47;100098.50;3557715;40;10265;-62
2021/04/08 08:03:25;;;;;;;;;16.67;12.67;;;;;5.55;71.74;100106.75;3550678;40;10202;-61
2021/04/08 08:05:58;;;;;;;;;15.00;13.00;;;;;5.11;71.09;100109.09;3554297;40;10140;-60
2021/04/08 08:08:43;;;;;;;;;13.33;12.00;;;;;5.99;69.96;100112.38;3550862;40;10176;-61
2021/04/08 08:11:15;;;;;;;;;16.00;12.00;;;;;6.16;67.73;100112.59;3550788;40;10094;-61
2021/04/08 08:13:52;;;;;;;;;9.67;9.67;;;;;5.71;68.14;100121.28;3552410;40;10211;-61
2021/04/08 08:16:25;;;;;;;;;15.67;12.33;;;;;5.91;68.52;100126.78;3554994;40;10113;-61
2021/04/08 08:18:53;;;;;;;;;16.67;13.33;;;;;6.42;67.13;100116.13;3555346;40;10286;-60
2021/04/08 08:21:35;;;;;;;;;14.00;13.67;;;;;6.16;66.21;100128.59;3553493;40;10367;-61
2021/04/08 08:24:11;;;;;;;;;14.67;11.33;;;;;6.55;65.68;100123.59;3554243;40;10044;-61
2021/04/08 08:26:42;;;;;;;;;12.67;9.67;;;;;6.54;65.08;100135.19;3553608;40;10263;-62
2021/04/08 08:29:09;;;;;;;;;13.00;12.00;;;;;6.18;65.41;100137.41;3553556;40;10205;-61
2021/04/08 08:31:37;;;;;;;;;14.00;12.00;;;;;6.09;66.46;100145.78;3554899;40;10145;-62
2021/04/08 08:34:23;;;;;;;;;20.00;14.00;;;;;5.96;66.58;100144.47;3553712;40;10050;-61
2021/04/08 08:36:54;;;;;;;;;14.00;12.00;;;;;6.21;66.84;100144.44;3549921;40;10169;-62
2021/04/08 08:39:30;;;;;;;;;16.67;12.67;;;;;5.70;69.00;100143.53;3550831;40;10661;-62
2021/04/08 08:42:00;;;;;;;;;14.67;12.33;;;;;5.70;68.26;100135.53;3550344;40;10892;-61
2021/04/08 08:44:28;;;;;;;;;16.00;13.00;;;;;5.35;70.62;100150.06;3549556;40;10212;-62
2021/04/08 08:47:03;;;;;;;;;9.33;9.33;;;;;5.65;70.38;100146.34;3550172;40;10359;-61
2021/04/08 08:49:48;;;;;;;;;16.67;15.00;;;;;5.78;68.86;100146.81;3550775;40;10202;-62
2021/04/08 08:52:44;;;;;;;;;18.33;15.67;;;;;5.56;69.44;100145.81;3553403;40;10155;-62
2021/04/08 08:55:15;;;;;;;;;20.33;16.00;;;;;6.08;68.02;100155.56;3549543;40;10086;-62
2021/04/08 08:57:46;;;;;;;;;12.67;9.00;;;;;6.25;66.73;100159.41;3553356;40;10133;-62
2021/04/08 09:00:17;;;;;;;;;33.50;32.50;;;;;5.91;66.34;100150.78;3551218;40;10236;-61
2021/04/08 09:02:46;;;;;;;;;21.67;20.33;;;;;5.88;66.00;100156.22;3550505;40;10554;-62
2021/04/08 09:05:17;;;;;;;;;15.67;14.33;;;;;5.68;63.14;100153.38;3553346;40;10236;-61
2021/04/08 09:07:51;;;;;;;;;15.33;13.00;;;;;5.93;62.49;100148.06;3553366;40;10123;-62
2021/04/08 09:10:41;;;;;;;;;17.00;12.67;;;;;6.04;62.01;100137.94;3553256;40;10346;-62
2021/04/08 09:13:09;;;;;;;;;14.67;11.33;;;;;6.62;61.08;100134.91;3550313;40;10322;-61
2021/04/08 09:15:37;;;;;;;;;11.33;9.00;;;;;7.08;58.83;100140.25;3549282;40;10612;-63
2021/04/08 09:18:08;;;;;;;;;9.00;7.00;;;;;7.60;56.69;100135.44;3550504;40;9963;-62
2021/04/08 09:20:37;;;;;;;;;11.00;11.00;;;;;7.68;56.07;100139.50;3550362;40;10004;-62
2021/04/08 09:23:12;;;;;;;;;15.00;13.67;;;;;8.17;55.45;100135.66;3552732;40;9976;-63
2021/04/08 09:25:56;;;;;;;;;13.00;10.00;;;;;7.81;54.03;100139.00;3553529;40;9945;-62
2021/04/08 09:28:31;;;;;;;;;14.00;9.00;;;;;7.94;51.66;100125.97;3555605;40;9895;-64
2021/04/08 09:33:42;;;;;;;;;10.33;8.00;;;;;9.10;51.46;100138.53;3557621;40;9908;-59
2021/04/08 09:36:21;;;;;;;;;9.00;7.00;;;;;8.64;52.17;100140.72;3556844;40;10358;-62
2021/04/08 09:39:10;;;;;;;;;11.67;10.33;;;;;8.65;53.07;100142.44;3557616;40;9857;-62
2021/04/08 09:41:43;;;;;;;;;9.00;8.33;;;;;6.80;57.13;100149.34;3550061;40;9908;-63
2021/04/08 09:44:13;;;;;;;;;10.67;9.67;;;;;7.33;57.84;100148.16;3554859;40;10004;-60
2021/04/08 09:46:50;;;;;;;;;15.33;11.00;;;;;8.24;57.50;100156.72;3556325;40;10064;-63
2021/04/08 09:49:40;;;;;;;;;12.33;11.67;;;;;7.32;58.56;100151.72;3547171;40;9976;-62
2021/04/08 09:52:13;;;;;;;;;13.67;13.00;;;;;8.25;56.09;100154.91;3549297;40;10104;-62
2021/04/08 09:54:52;;;;;;;;;14.67;13.33;;;;;8.23;55.38;100164.81;3556580;40;9992;-63
2021/04/08 09:57:40;;;;;;;;;18.00;13.00;;;;;6.95;57.09;100175.44;3554537;40;10029;-62
2021/04/08 10:00:14;;;;;;;;;10.67;8.67;;;;;6.03;65.82;100172.63;3551842;40;9983;-62
2021/04/08 10:03:06;;;;;;;;;13.67;10.00;;;;;5.66;71.02;100164.09;3555901;40;10030;-61
2021/04/08 10:05:37;;;;;;;;;5.67;5.00;;;;;5.71;73.71;100179.91;3557053;40;10691;-61
2021/04/08 10:08:05;;;;;;;;;5.00;5.00;;;;;5.43;74.32;100178.16;3557234;40;10185;-62
2021/04/08 10:10:41;;;;;;;;;2.00;2.00;;;;;5.36;73.07;100173.94;3557556;40;10039;-61
2021/04/08 10:13:22;;;;;;;;;9.00;6.00;;;;;5.16;72.18;100179.94;3556992;40;10010;-61
2021/04/08 10:15:53;;;;;;;;;8.67;7.33;;;;;5.73;71.05;100170.94;3555391;40;10201;-61
2021/04/08 10:18:27;;;;;;;;;15.67;11.67;;;;;5.72;66.72;100174.53;3556069;40;10115;-61
2021/04/08 10:20:58;;;;;;;;;17.67;13.33;;;;;6.48;65.87;100174.59;3548268;40;10155;-61
2021/04/08 10:23:37;;;;;;;;;10.00;8.67;;;;;6.78;61.98;100183.22;3557186;40;10088;-61
2021/04/08 10:26:18;;;;;;;;;10.00;10.00;;;;;7.28;60.70;100187.53;3555111;40;10204;-61
2021/04/08 10:28:51;;;;;;;;;10.00;9.00;;;;;7.12;62.73;100180.13;3556855;40;10011;-62
2021/04/08 10:31:27;;;;;;;;;13.00;10.67;;;;;7.13;59.68;100189.84;3556724;40;9930;-63
2021/04/08 10:34:04;;;;;;;;;11.00;7.67;;;;;7.12;61.68;100176.59;3556749;40;9922;-62
2021/04/08 10:36:34;;;;;;;;;10.00;8.33;;;;;7.08;62.99;100169.59;3557079;40;10133;-63
2021/04/08 10:39:07;;;;;;;;;8.33;6.00;;;;;6.92;61.61;100164.00;3556626;40;10082;-63
2021/04/08 10:41:35;;;;;;;;;10.33;9.00;;;;;6.63;62.67;100160.66;3556331;40;10673;-62
2021/04/08 10:44:29;;;;;;;;;13.00;9.00;;;;;6.95;61.49;100151.44;3557180;40;10030;-63
2021/04/08 10:47:02;;;;;;;;;11.00;8.33;;;;;7.04;61.97;100155.53;3556892;40;10062;-62
2021/04/08 10:49:32;;;;;;;;;12.67;12.67;;;;;6.35;63.38;100168.81;3557374;40;10056;-63
2021/04/08 10:52:09;;;;;;;;;10.67;8.33;;;;;5.93;65.14;100204.94;3557179;40;10349;-62
2021/04/08 10:54:40;;;;;;;;;12.00;9.33;;;;;4.26;74.23;100233.94;3555441;40;10280;-62
2021/04/08 10:57:08;;;;;;;;;17.25;8.00;;;;;3.06;80.19;100241.31;3550937;40;10175;-61
2021/04/08 10:59:40;;;;;;;;;23.25;17.75;;;;;2.95;81.93;100232.72;3552328;40;9987;-62
2021/04/08 11:02:18;;;;;;;;;13.75;12.50;;;;;3.26;82.79;100224.94;3556934;40;9807;-63
2021/04/08 11:04:45;;;;;;;;;11.00;8.00;;;;;3.55;80.83;100224.25;3558136;40;10147;-63
2021/04/08 11:07:12;;;;;;;;;11.50;10.00;;;;;3.68;81.13;100236.31;3557790;40;10162;-63
2021/04/08 11:09:39;;;;;;;;;18.50;17.50;;;;;3.77;80.59;100219.31;3558896;40;9854;-63
2021/04/08 11:12:23;;;;;;;;;16.75;11.50;;;;;3.75;80.74;100234.41;3557679;40;10011;-63
2021/04/08 11:14:57;;;;;;;;;16.00;15.00;;;;;4.05;78.81;100218.56;3558058;40;10092;-62
2021/04/08 11:17:27;;;;;;;;;13.50;9.00;;;;;4.73;77.16;100217.59;3557079;40;10260;-61
2021/04/08 11:19:58;;;;;;;;;13.50;9.00;;;;;4.82;75.27;100225.31;3557048;40;10320;-61
2021/04/08 11:22:30;;;;;;;;;8.00;7.67;;;;;5.38;72.36;100221.84;3553900;40;10122;-61
2021/04/08 11:24:58;;;;;;;;;14.00;13.00;;;;;5.97;72.00;100220.81;3550432;40;10250;-61
2021/04/08 11:27:34;;;;;;;;;9.00;9.00;;;;;6.02;67.53;100219.72;3552421;40;10090;-62
2021/04/08 11:30:59;;;;;;;;;6.33;5.67;;;;;6.18;70.50;100228.06;3558246;40;10197;-62
2021/04/08 11:33:27;;;;;;;;;9.67;8.00;;;;;6.05;69.75;100246.28;3553212;40;10074;-61
2021/04/08 11:35:54;;;;;;;;;6.67;6.00;;;;;6.36;71.23;100246.09;3550072;40;10127;-61
2021/04/08 11:38:24;;;;;;;;;8.67;6.00;;;;;5.82;71.18;100256.81;3552979;40;10134;-62
2021/04/08 11:41:07;;;;;;;;;9.00;9.00;;;;;5.16;74.20;100274.84;3552351;40;10160;-62
2021/04/08 11:43:53;;;;;;;;;5.00;2.67;;;;;4.54;76.82;100276.63;3549979;40;10324;-60
2021/04/08 11:46:30;;;;;;;;;4.00;4.00;;;;;3.77;78.76;100282.19;3550323;40;10215;-61
2021/04/08 11:49:00;;;;;;;;;5.33;4.00;;;;;3.57;79.91;100264.91;3557310;40;10164;-61